Diba, Oman

12:56 PM GST on February 14, 2016 (GMT +0400)
Ras Al Khaimah International | | Change Station
CLOSE
Current Station
Airport
Location: Ras Al Khaimah,
Elevation: 102 ft
Nearby Weather Stations

Elev 102 ft 25.61 °N, 55.94 °E | Updated 56 minutes ago

Partly Cloudy
Partly Cloudy
73 °F
Feels Like 73 °F
N
4
Wind Variable Wind from North

Today
High -- | Low -- °F
--% Chance of Precip.
Yesterday
High -- | Low -- °F
Precip. -- in
Pressure 30.12 in
Visibility 6.2 miles
Clouds Few 4000 ft
Dew Point 54 °F
Humidity 50%
Rainfall 0.00 in
Snow Depth Not available.
6:51 AM 6:07 PM
Waxing Crescent, 39% visible
METAR OMRK 140800Z 35003KT 9999 FEW040 23/12 Q1020 A3012
Pressure 30.12 in
Visibility 6.2 miles
Clouds Few 4000 ft
Dew Point 54 °F
Humidity 50%
Rainfall 0.00 in
Snow Depth Not available.
6:51 AM 6:07 PM
Waxing Crescent, 39% visible
METAR OMRK 140800Z 35003KT 9999 FEW040 23/12 Q1020 A3012

10-Day Weather Forecast

No radar image for this location.
×

Almanac

Astronomy

Feb. 14, 2016 Rise Set
Actual Time
Civil Twilight
Nautical Twilight
Astronomical Twilight
Moon
Length of Visible Light
Length of Day
Tomorrow will be .
, % of the Moon is Illuminated

Today's Extremes

Country Highs Country Lows

Community

WunderPhotos

Upload Photos

1,892,763 photos uploaded!

WunderBlog® & News

Nearby

Air Quality

  Air Quality AQ Index Pollutant
Not available.

Snow Depth

Station Depth Elevation

Earthquake Activity

City Distance Mag. Time & Date
Minimum magnitude displayed is 2.5.

Coastal Water Temperatures

Place Temperature

Stations

Nearby Weather Stations

Station Location Temp. Windchill Dew Point Humidity Wind Precip. Elev Updated Type